createdAt,value
2023-04-14T05:46:32.733Z,5.20
2023-04-14T05:49:01.399Z,5.30
2023-04-14T05:51:29.169Z,5.30
2023-04-14T05:53:56.987Z,5.40
2023-04-14T05:56:24.448Z,5.50
2023-04-14T05:58:54.336Z,5.70
2023-04-14T06:01:21.848Z,5.80
2023-04-14T06:03:49.514Z,5.80
2023-04-14T06:06:17.685Z,5.90
2023-04-14T06:08:45.196Z,6.00
2023-04-14T06:11:14.240Z,6.10
2023-04-14T06:13:41.696Z,6.20
2023-04-14T06:16:09.374Z,6.30
2023-04-14T06:18:36.808Z,6.40
2023-04-14T06:21:04.460Z,6.40
2023-04-14T06:23:32.440Z,6.50
2023-04-14T06:26:00.052Z,6.60
2023-04-14T06:28:27.517Z,6.70
2023-04-14T06:30:55.077Z,6.80
2023-04-14T06:33:22.529Z,6.80
2023-04-14T06:35:50.144Z,6.90
2023-04-14T06:38:17.664Z,7.00
2023-04-14T06:40:45.226Z,7.10
2023-04-14T06:43:14.250Z,7.10
2023-04-14T06:45:41.745Z,7.20
2023-04-14T06:48:09.339Z,7.20
2023-04-14T06:50:36.947Z,7.30
2023-04-14T06:53:06.408Z,7.30
2023-04-14T06:55:36.394Z,7.40
2023-04-14T06:58:03.964Z,7.40
2023-04-14T07:00:31.696Z,7.50
2023-04-14T07:02:59.329Z,7.60
2023-04-14T07:05:27.186Z,7.70
2023-04-14T07:07:57.864Z,7.70
2023-04-14T07:10:25.351Z,7.80
2023-04-14T07:12:52.783Z,7.90
2023-04-14T07:15:20.375Z,7.90
2023-04-14T07:17:47.908Z,8.00
2023-04-14T07:20:15.611Z,8.00
2023-04-14T07:22:43.199Z,8.10
2023-04-14T07:25:10.713Z,8.10
2023-04-14T07:27:38.177Z,8.20
2023-04-14T07:30:07.136Z,8.20
2023-04-14T07:32:34.820Z,8.30
2023-04-14T07:35:02.377Z,8.40
2023-04-14T07:37:29.896Z,8.50
2023-04-14T07:39:58.799Z,8.50
2023-04-14T07:42:26.766Z,8.50
2023-04-14T07:44:54.235Z,8.60
2023-04-14T07:47:21.763Z,8.70
2023-04-14T07:49:49.332Z,8.70
2023-04-14T07:52:17.844Z,8.80
2023-04-14T07:54:45.930Z,8.90
2023-04-14T07:57:14.221Z,8.90
2023-04-14T07:59:43.120Z,8.90
2023-04-14T08:02:11.469Z,9.00
2023-04-14T08:04:39.209Z,9.00
2023-04-14T08:07:06.910Z,9.10
2023-04-14T08:09:34.937Z,9.20
2023-04-14T08:12:02.843Z,9.30
2023-04-14T08:14:30.503Z,9.40
2023-04-14T08:16:57.961Z,9.40
2023-04-14T08:19:25.378Z,9.40
2023-04-14T08:21:53.627Z,9.50
2023-04-14T08:24:21.157Z,9.60
2023-04-14T08:26:48.597Z,9.60
2023-04-14T08:29:16.286Z,9.70
2023-04-14T08:31:43.798Z,9.70
2023-04-14T08:34:11.296Z,9.80
2023-04-14T08:36:39.500Z,9.90
2023-04-14T08:39:07.152Z,10.00
2023-04-14T08:41:35.437Z,10.00
2023-04-14T08:44:02.961Z,10.10
2023-04-14T08:46:31.880Z,10.20
2023-04-14T08:49:10.420Z,10.30
2023-04-14T08:51:42.741Z,10.30
2023-04-14T08:54:13.787Z,10.40
2023-04-14T08:56:43.069Z,10.50
2023-04-14T08:59:11.878Z,10.60
2023-04-14T09:01:40.213Z,10.60
2023-04-14T09:04:09.119Z,10.70
2023-04-14T09:06:37.451Z,10.80
2023-04-14T09:09:09.365Z,10.90
2023-04-14T09:11:37.851Z,11.00
2023-04-14T09:14:06.211Z,11.00
2023-04-14T09:16:34.360Z,11.10
2023-04-14T09:19:06.681Z,11.10
2023-04-14T09:21:53.257Z,11.20
2023-04-14T09:24:31.814Z,11.20
2023-04-14T09:27:05.687Z,11.40
2023-04-14T09:29:33.967Z,11.40
2023-04-14T09:32:01.766Z,11.50
2023-04-14T09:34:29.663Z,11.50
2023-04-14T09:37:09.585Z,11.50
2023-04-14T09:39:53.959Z,11.50
2023-04-14T09:42:36.800Z,11.50
2023-04-14T09:45:05.711Z,11.70
2023-04-14T09:47:33.372Z,11.80
2023-04-14T09:50:29.733Z,11.90
2023-04-14T09:52:57.619Z,12.00
2023-04-14T09:55:26.257Z,12.10
2023-04-14T09:57:55.847Z,12.20
2023-04-14T10:00:24.731Z,12.30
2023-04-14T10:02:58.069Z,12.20
2023-04-14T10:05:34.336Z,12.20
2023-04-14T10:08:06.660Z,12.20
2023-04-14T10:10:34.363Z,12.30
2023-04-14T10:13:02.391Z,12.30
2023-04-14T10:15:29.889Z,12.40
2023-04-14T10:17:57.498Z,12.40
2023-04-14T10:20:27.037Z,12.40
2023-04-14T10:22:56.647Z,12.50
2023-04-14T10:25:25.031Z,12.60
2023-04-14T10:27:52.716Z,12.70
2023-04-14T10:30:20.293Z,12.90
2023-04-14T10:32:48.368Z,13.10
2023-04-14T10:35:18.683Z,13.30
2023-04-14T10:37:55.270Z,13.40
2023-04-14T10:40:23.429Z,13.70
2023-04-14T10:42:56.655Z,13.90
2023-04-14T10:45:24.413Z,14.10
2023-04-14T10:47:52.065Z,14.20
2023-04-14T10:50:25.146Z,14.40
2023-04-14T10:52:56.789Z,14.50
2023-04-14T10:55:28.215Z,14.60
2023-04-14T10:58:06.640Z,14.70
2023-04-14T11:00:39.343Z,14.90
2023-04-14T11:03:16.615Z,14.90
2023-04-14T11:05:53.566Z,14.90
2023-04-14T11:08:35.702Z,14.80
2023-04-14T11:11:07.139Z,14.80
2023-04-14T11:13:35.843Z,14.70
2023-04-14T11:16:07.337Z,14.70
2023-04-14T11:18:46.214Z,14.70
2023-04-14T11:21:17.284Z,14.70
2023-04-14T11:23:45.573Z,14.70
2023-04-14T11:26:14.137Z,14.70
2023-04-14T11:28:45.161Z,14.90
2023-04-14T11:31:17.245Z,15.00
2023-04-14T11:33:45.118Z,15.00
2023-04-14T11:36:13.553Z,15.10
2023-04-14T11:38:42.620Z,15.20
2023-04-14T11:41:10.594Z,15.40
2023-04-14T11:43:46.680Z,15.50
2023-04-14T11:46:15.871Z,15.50
2023-04-14T11:48:43.963Z,15.50
2023-04-14T11:51:11.489Z,15.60
2023-04-14T11:53:40.737Z,15.70
2023-04-14T11:56:09.189Z,15.60
2023-04-14T11:58:37.313Z,15.70
2023-04-14T12:01:05.029Z,15.90
2023-04-14T12:03:34.782Z,16.10
2023-04-14T12:06:03.956Z,16.40
2023-04-14T12:08:33.381Z,16.60
2023-04-14T12:11:17.738Z,16.80
2023-04-14T12:13:47.417Z,16.90
2023-04-14T12:16:17.325Z,16.90
2023-04-14T12:18:45.335Z,17.20
2023-04-14T12:21:19.744Z,17.20
2023-04-14T12:23:51.037Z,17.30
2023-04-14T12:26:20.834Z,17.50
2023-04-14T12:28:58.146Z,17.60
2023-04-14T12:31:32.439Z,17.70
2023-04-14T12:34:04.130Z,17.80
2023-04-14T12:36:47.947Z,17.90
2023-04-14T12:39:17.579Z,18.00
2023-04-14T12:41:45.755Z,18.20
2023-04-14T12:44:21.575Z,18.30
2023-04-14T12:46:52.845Z,18.50
2023-04-14T12:49:38.817Z,18.70
2023-04-14T12:52:08.429Z,18.80
2023-04-14T12:54:54.009Z,18.80
2023-04-14T12:57:22.723Z,19.00
2023-04-14T12:59:50.721Z,19.10
2023-04-14T13:02:18.855Z,19.20
2023-04-14T13:04:46.552Z,19.20
2023-04-14T13:07:14.046Z,19.10
2023-04-14T13:09:43.749Z,19.20
2023-04-14T13:12:11.408Z,19.40
2023-04-14T13:14:39.442Z,19.30
2023-04-14T13:17:07.291Z,19.20
2023-04-14T13:19:34.723Z,19.40
2023-04-14T13:22:02.262Z,19.40
2023-04-14T13:24:29.765Z,19.50
2023-04-14T13:26:57.312Z,19.10
2023-04-14T13:29:24.865Z,19.00
2023-04-14T13:31:52.403Z,18.80
2023-04-14T13:34:19.922Z,18.60
2023-04-14T13:36:48.457Z,18.40
2023-04-14T13:39:16.038Z,18.30
2023-04-14T13:41:44.014Z,18.30
2023-04-14T13:44:11.491Z,18.10
2023-04-14T13:46:41.558Z,18.20
2023-04-14T13:49:09.274Z,18.10
2023-04-14T13:51:36.721Z,17.90
2023-04-14T13:54:04.279Z,17.90
2023-04-14T13:56:31.998Z,17.80
2023-04-14T13:58:59.605Z,17.90
2023-04-14T14:01:28.055Z,18.10
2023-04-14T14:03:55.880Z,18.20
2023-04-14T14:06:23.672Z,18.30
2023-04-14T14:09:06.436Z,18.10
2023-04-14T14:11:34.724Z,18.00
2023-04-14T14:14:02.310Z,18.00
2023-04-14T14:16:36.744Z,17.90
2023-04-14T14:19:08.117Z,17.70
2023-04-14T14:21:35.887Z,17.80
2023-04-14T14:24:03.620Z,18.10
2023-04-14T14:26:31.501Z,18.30
2023-04-14T14:28:59.032Z,18.30
2023-04-14T14:31:26.680Z,18.40
2023-04-14T14:33:54.235Z,18.70
2023-04-14T14:36:21.938Z,18.60
2023-04-14T14:38:49.479Z,18.80
2023-04-14T14:41:16.963Z,18.90
2023-04-14T14:43:45.287Z,19.00
2023-04-14T14:46:12.776Z,19.30
2023-04-14T14:48:40.417Z,19.30
2023-04-14T14:51:07.893Z,19.40
2023-04-14T14:53:35.512Z,19.60
2023-04-14T14:56:03.054Z,19.80
2023-04-14T14:58:30.501Z,20.00
2023-04-14T15:00:58.184Z,20.00
2023-04-14T15:03:26.609Z,20.20
2023-04-14T15:05:54.216Z,20.20
2023-04-14T15:08:21.751Z,20.50
2023-04-14T15:10:53.176Z,20.70
2023-04-14T15:13:21.080Z,20.80
2023-04-14T15:15:48.613Z,20.90
2023-04-14T15:18:16.260Z,21.10
2023-04-14T15:20:43.717Z,21.40
2023-04-14T15:23:11.220Z,21.50
2023-04-14T15:25:38.716Z,21.60
2023-04-14T15:28:06.260Z,21.50
2023-04-14T15:30:33.976Z,21.70
2023-04-14T15:33:01.879Z,21.80
2023-04-14T15:35:29.389Z,21.70
2023-04-14T15:37:57.191Z,21.60
2023-04-14T15:40:24.644Z,21.50
2023-04-14T15:42:53.139Z,21.40
2023-04-14T15:45:21.615Z,21.10
2023-04-14T15:47:49.441Z,21.00
2023-04-14T15:50:19.291Z,21.00
2023-04-14T15:52:46.830Z,20.90
2023-04-14T15:55:14.301Z,20.90
2023-04-14T15:57:41.825Z,20.80
2023-04-14T16:00:10.632Z,20.70
2023-04-14T16:02:39.694Z,20.70
2023-04-14T16:05:08.605Z,20.50
2023-04-14T16:07:36.104Z,20.40
2023-04-14T16:10:05.087Z,20.30
2023-04-14T16:12:35.387Z,20.10
2023-04-14T16:15:07.176Z,20.10
2023-04-14T16:17:34.873Z,20.00
2023-04-14T16:20:02.999Z,19.80
2023-04-14T16:22:31.321Z,19.70
2023-04-14T16:24:58.736Z,19.50
2023-04-14T16:27:26.456Z,19.30
2023-04-14T16:29:53.968Z,19.20
2023-04-14T16:32:21.559Z,19.20
2023-04-14T16:34:49.400Z,19.10
2023-04-14T16:37:17.527Z,19.00
2023-04-14T16:39:46.367Z,18.90
2023-04-14T16:42:13.819Z,18.80
2023-04-14T16:44:41.664Z,18.70
2023-04-14T16:47:12.246Z,18.70
2023-04-14T16:49:39.789Z,18.60
2023-04-14T16:52:07.504Z,18.50
2023-04-14T16:54:36.813Z,18.50
2023-04-14T16:57:07.516Z,18.40
2023-04-14T16:59:35.383Z,18.30
2023-04-14T17:02:03.298Z,18.20
2023-04-14T17:04:31.556Z,18.10
2023-04-14T17:06:59.323Z,18.10
2023-04-14T17:09:26.753Z,18.00
2023-04-14T17:11:54.814Z,17.90
2023-04-14T17:14:23.351Z,17.90
2023-04-14T17:16:50.967Z,17.80
2023-04-14T17:19:18.507Z,17.60
2023-04-14T17:21:46.092Z,17.40
2023-04-14T17:24:13.634Z,17.20
2023-04-14T17:26:41.334Z,17.20
2023-04-14T17:29:09.681Z,17.10
2023-04-14T17:31:39.897Z,17.00
2023-04-14T17:34:11.515Z,16.90
2023-04-14T17:36:39.814Z,16.80
2023-04-14T17:39:08.487Z,16.70
2023-04-14T17:41:37.367Z,16.70
2023-04-14T17:44:05.032Z,16.60
2023-04-14T17:46:35.407Z,16.60
2023-04-14T17:49:03.972Z,16.50
2023-04-14T17:51:32.270Z,16.30
2023-04-14T17:54:00.241Z,16.20
2023-04-14T17:56:28.696Z,16.10
2023-04-14T17:58:56.308Z,15.90
2023-04-14T18:01:26.241Z,15.90
2023-04-14T18:03:53.869Z,15.90
2023-04-14T18:06:21.487Z,15.90
2023-04-14T18:08:49.662Z,15.80
2023-04-14T18:11:17.403Z,15.80
2023-04-14T18:13:45.078Z,15.80
2023-04-14T18:16:12.517Z,15.80
2023-04-14T18:18:40.030Z,15.80
2023-04-14T18:21:08.235Z,15.80
2023-04-14T18:23:36.488Z,15.70
2023-04-14T18:28:35.992Z,15.60
2023-04-14T18:31:04.081Z,15.50
2023-04-14T18:33:31.591Z,15.50
2023-04-14T18:36:00.675Z,15.30
2023-04-14T18:38:28.818Z,15.30
2023-04-14T18:41:04.933Z,15.20
2023-04-14T18:43:33.824Z,15.20
2023-04-14T18:46:01.440Z,15.20
2023-04-14T18:48:28.903Z,15.10
2023-04-14T18:51:04.410Z,15.10
2023-04-14T18:53:32.033Z,15.10
2023-04-14T18:55:59.672Z,15.00
2023-04-14T18:58:27.370Z,15.00
2023-04-14T19:00:54.876Z,14.90
2023-04-14T19:03:23.773Z,14.80
2023-04-14T19:05:51.551Z,14.80
2023-04-14T19:08:19.089Z,14.70
2023-04-14T19:10:51.214Z,14.60
2023-04-14T19:13:18.891Z,14.50
2023-04-14T19:15:46.416Z,14.50
2023-04-14T19:18:13.941Z,14.40
2023-04-14T19:20:41.593Z,14.40
2023-04-14T19:23:10.055Z,14.40
2023-04-14T19:25:39.478Z,14.40
2023-04-14T19:28:07.106Z,14.40
2023-04-14T19:30:34.573Z,14.40
2023-04-14T19:33:02.479Z,14.40
2023-04-14T19:35:31.503Z,14.30
2023-04-14T19:37:58.943Z,14.30
2023-04-14T19:40:26.617Z,14.30
2023-04-14T19:42:55.373Z,14.20
2023-04-14T19:45:22.895Z,14.20
2023-04-14T19:47:50.412Z,14.10
2023-04-14T19:50:17.960Z,14.10
2023-04-14T19:52:46.789Z,14.10
2023-04-14T19:55:14.510Z,14.00
2023-04-14T19:57:42.073Z,13.90
2023-04-14T20:00:12.233Z,13.90
2023-04-14T20:02:40.784Z,13.90
2023-04-14T20:05:08.712Z,13.90
2023-04-14T20:07:36.142Z,13.90
2023-04-14T20:10:04.154Z,13.80
2023-04-14T20:12:31.891Z,13.90
2023-04-14T20:14:59.526Z,13.80
2023-04-14T20:17:27.836Z,13.80
2023-04-14T20:19:55.728Z,13.80
2023-04-14T20:22:23.151Z,13.70
2023-04-14T20:24:50.646Z,13.60
2023-04-14T20:27:18.816Z,13.60
2023-04-14T20:29:46.480Z,13.40
2023-04-14T20:32:13.901Z,13.20
2023-04-14T20:34:41.334Z,13.10
2023-04-14T20:37:09.215Z,13.10
2023-04-14T20:39:36.674Z,13.10
2023-04-14T20:42:04.182Z,13.10
2023-04-14T20:44:31.674Z,13.10
2023-04-14T20:46:59.460Z,13.10
2023-04-14T20:49:26.948Z,13.20
2023-04-14T20:51:54.360Z,13.30
2023-04-14T20:54:21.884Z,13.40
2023-04-14T20:56:50.540Z,13.40
2023-04-14T20:59:18.184Z,13.50
2023-04-14T21:01:48.858Z,13.50
2023-04-14T21:04:16.485Z,13.50
2023-04-14T21:06:43.959Z,13.60
2023-04-14T21:09:11.410Z,13.60
2023-04-14T21:11:38.949Z,13.50
2023-04-14T21:15:27.089Z,13.50
2023-04-14T21:16:55.029Z,13.60
2023-04-14T21:19:23.356Z,13.60
2023-04-14T21:21:51.097Z,13.50
2023-04-14T21:24:18.925Z,13.50
2023-04-14T21:26:46.817Z,13.50
2023-04-14T21:29:14.280Z,13.40
2023-04-14T21:31:41.849Z,13.40
2023-04-14T21:34:09.297Z,13.50
2023-04-14T21:36:36.877Z,13.40
2023-04-14T21:39:04.640Z,13.40
2023-04-14T21:41:32.829Z,13.40
2023-04-14T21:44:00.263Z,13.40
2023-04-14T21:46:27.922Z,13.40
2023-04-14T21:48:55.369Z,13.40
2023-04-14T21:51:22.863Z,13.30
2023-04-14T21:53:50.324Z,13.30
2023-04-14T21:56:17.999Z,13.20
2023-04-14T21:58:46.148Z,13.20
2023-04-14T22:01:13.720Z,13.10
2023-04-14T22:03:42.055Z,13.10
2023-04-14T22:06:12.623Z,13.10
2023-04-14T22:08:41.165Z,13.10
2023-04-14T22:11:08.972Z,13.00
2023-04-14T22:13:36.679Z,13.00
2023-04-14T22:16:04.541Z,12.90
2023-04-14T22:18:32.347Z,12.90
2023-04-14T22:20:59.863Z,12.90
2023-04-14T22:23:27.668Z,12.80
2023-04-14T22:25:55.264Z,12.80
2023-04-14T22:28:22.778Z,12.70
2023-04-14T22:30:50.295Z,12.60
2023-04-14T22:33:17.694Z,12.70
2023-04-14T22:35:45.252Z,12.60
2023-04-14T22:38:12.862Z,12.60
2023-04-14T22:40:40.341Z,12.50
2023-04-14T22:43:10.932Z,12.50
2023-04-14T22:45:39.285Z,12.40
2023-04-14T22:48:10.883Z,12.40
2023-04-14T22:50:39.351Z,12.30
2023-04-14T22:53:07.075Z,12.30
2023-04-14T22:55:34.603Z,12.20
2023-04-14T22:58:02.628Z,12.20
2023-04-14T23:00:30.204Z,12.10
2023-04-14T23:02:59.446Z,12.10
2023-04-14T23:05:27.132Z,12.00
2023-04-14T23:07:54.603Z,11.90
2023-04-14T23:10:21.996Z,11.90
2023-04-14T23:12:49.448Z,11.90
2023-04-14T23:15:17.225Z,11.90
2023-04-14T23:17:45.114Z,11.90
2023-04-14T23:20:13.025Z,11.90
2023-04-14T23:22:40.800Z,11.80
2023-04-14T23:25:09.391Z,11.80
2023-04-14T23:27:36.924Z,11.70
2023-04-14T23:30:05.540Z,11.70
2023-04-14T23:32:33.524Z,11.60
2023-04-14T23:35:01.012Z,11.60
2023-04-14T23:37:28.839Z,11.50
2023-04-14T23:39:56.362Z,11.50
2023-04-14T23:42:23.918Z,11.50
2023-04-14T23:44:51.599Z,11.40
2023-04-14T23:47:19.250Z,11.40
2023-04-14T23:49:46.807Z,11.30
2023-04-14T23:52:14.320Z,11.30
2023-04-14T23:54:41.947Z,11.20
2023-04-14T23:57:10.071Z,11.20
2023-04-14T23:59:38.290Z,11.20
